sensor_id;sensor_type;location;lat;lon;timestamp;P1;P2;P0
65383;PMS5003;51986;52.788;41.368;2023-02-01T00:00:30;13.00;11.00;3.75
65383;PMS5003;51986;52.788;41.368;2023-02-01T00:02:57;16.50;13.00;5.00
65383;PMS5003;51986;52.788;41.368;2023-02-01T00:05:24;15.00;13.00;6.00
65383;PMS5003;51986;52.788;41.368;2023-02-01T00:07:51;16.50;15.00;6.00
65383;PMS5003;51986;52.788;41.368;2023-02-01T00:10:18;15.00;13.00;5.00
65383;PMS5003;51986;52.788;41.368;2023-02-01T00:12:45;15.75;13.00;6.00
65383;PMS5003;51986;52.788;41.368;2023-02-01T00:15:12;15.00;12.00;6.00
65383;PMS5003;51986;52.788;41.368;2023-02-01T00:17:39;17.75;15.00;7.00
65383;PMS5003;51986;52.788;41.368;2023-02-01T00:20:06;17.00;13.25;5.00
65383;PMS5003;51986;52.788;41.368;2023-02-01T00:22:33;14.50;11.00;4.00
65383;PMS5003;51986;52.788;41.368;2023-02-01T00:25:00;15.00;13.00;5.00
65383;PMS5003;51986;52.788;41.368;2023-02-01T00:27:27;15.00;13.50;5.00
65383;PMS5003;51986;52.788;41.368;2023-02-01T00:29:54;15.00;13.00;5.00
65383;PMS5003;51986;52.788;41.368;2023-02-01T00:32:22;15.00;13.00;5.00
65383;PMS5003;51986;52.788;41.368;2023-02-01T00:34:49;17.25;13.50;7.75
65383;PMS5003;51986;52.788;41.368;2023-02-01T00:37:16;18.25;15.00;7.50
65383;PMS5003;51986;52.788;41.368;2023-02-01T00:39:42;16.75;14.25;5.75
65383;PMS5003;51986;52.788;41.368;2023-02-01T00:42:09;19.00;16.00;7.75
65383;PMS5003;51986;52.788;41.368;2023-02-01T00:44:36;15.75;13.75;7.00
65383;PMS5003;51986;52.788;41.368;2023-02-01T00:47:03;14.00;12.00;5.00
65383;PMS5003;51986;52.788;41.368;2023-02-01T00:49:30;15.00;13.00;5.50
65383;PMS5003;51986;52.788;41.368;2023-02-01T00:51:57;17.00;13.00;5.00
65383;PMS5003;51986;52.788;41.368;2023-02-01T00:54:24;19.00;15.50;7.00
65383;PMS5003;51986;52.788;41.368;2023-02-01T00:56:51;19.00;16.00;7.50
65383;PMS5003;51986;52.788;41.368;2023-02-01T00:59:18;17.00;15.00;7.00
65383;PMS5003;51986;52.788;41.368;2023-02-01T06:41:38;20.00;15.50;9.00
65383;PMS5003;51986;52.788;41.368;2023-02-01T06:44:05;19.00;15.00;7.50
65383;PMS5003;51986;52.788;41.368;2023-02-01T06:46:32;18.50;16.00;9.00
65383;PMS5003;51986;52.788;41.368;2023-02-01T06:48:58;17.00;15.00;7.00
65383;PMS5003;51986;52.788;41.368;2023-02-01T06:51:26;15.00;12.00;4.00
65383;PMS5003;51986;52.788;41.368;2023-02-01T06:53:54;15.00;11.00;6.00
65383;PMS5003;51986;52.788;41.368;2023-02-01T06:56:21;17.25;14.25;8.75
65383;PMS5003;51986;52.788;41.368;2023-02-01T06:58:48;15.50;14.00;6.75
65383;PMS5003;51986;52.788;41.368;2023-02-01T07:01:16;14.50;13.00;6.00
65383;PMS5003;51986;52.788;41.368;2023-02-01T07:03:46;14.00;12.25;5.00
65383;PMS5003;51986;52.788;41.368;2023-02-01T07:06:14;12.75;11.50;4.25
65383;PMS5003;51986;52.788;41.368;2023-02-01T07:08:41;14.50;13.00;6.00
65383;PMS5003;51986;52.788;41.368;2023-02-01T07:11:09;18.50;14.00;8.00
65383;PMS5003;51986;52.788;41.368;2023-02-01T07:13:37;16.25;12.00;5.00
65383;PMS5003;51986;52.788;41.368;2023-02-01T07:16:06;15.00;12.25;6.25
65383;PMS5003;51986;52.788;41.368;2023-02-01T07:18:37;14.00;11.00;5.00
65383;PMS5003;51986;52.788;41.368;2023-02-01T07:21:04;15.50;14.75;6.50
65383;PMS5003;51986;52.788;41.368;2023-02-01T07:23:31;13.50;11.00;4.00
65383;PMS5003;51986;52.788;41.368;2023-02-01T07:25:59;15.50;11.75;5.50
65383;PMS5003;51986;52.788;41.368;2023-02-01T07:28:30;15.00;13.00;5.25
65383;PMS5003;51986;52.788;41.368;2023-02-01T07:31:06;15.00;13.00;5.00
65383;PMS5003;51986;52.788;41.368;2023-02-01T07:33:35;15.00;13.00;5.00
65383;PMS5003;51986;52.788;41.368;2023-02-01T07:36:03;14.00;13.00;5.00
65383;PMS5003;51986;52.788;41.368;2023-02-01T07:38:31;14.00;12.00;4.50
65383;PMS5003;51986;52.788;41.368;2023-02-01T07:40:59;14.25;13.00;5.00
65383;PMS5003;51986;52.788;41.368;2023-02-01T07:43:27;17.25;15.25;9.25
65383;PMS5003;51986;52.788;41.368;2023-02-01T07:45:55;18.00;16.00;9.50
65383;PMS5003;51986;52.788;41.368;2023-02-01T07:48:23;14.00;13.00;5.00
65383;PMS5003;51986;52.788;41.368;2023-02-01T07:51:04;16.00;13.25;8.00
65383;PMS5003;51986;52.788;41.368;2023-02-01T07:53:34;14.00;12.25;5.50
65383;PMS5003;51986;52.788;41.368;2023-02-01T07:56:02;19.00;17.00;10.25
65383;PMS5003;51986;52.788;41.368;2023-02-01T07:58:30;16.75;14.50;9.25
65383;PMS5003;51986;52.788;41.368;2023-02-01T08:00:57;17.00;16.00;10.00
65383;PMS5003;51986;52.788;41.368;2023-02-01T08:03:24;16.00;15.25;6.25
65383;PMS5003;51986;52.788;41.368;2023-02-01T08:05:54;17.25;17.25;10.25
65383;PMS5003;51986;52.788;41.368;2023-02-01T08:08:22;16.00;15.00;8.75
65383;PMS5003;51986;52.788;41.368;2023-02-01T08:10:49;20.00;18.00;10.00
65383;PMS5003;51986;52.788;41.368;2023-02-01T08:13:16;18.00;15.00;9.00
65383;PMS5003;51986;52.788;41.368;2023-02-01T08:15:43;16.50;14.00;8.00
65383;PMS5003;51986;52.788;41.368;2023-02-01T08:18:10;15.25;14.00;6.00
65383;PMS5003;51986;52.788;41.368;2023-02-01T08:20:37;18.75;16.00;8.00
65383;PMS5003;51986;52.788;41.368;2023-02-01T08:23:07;22.50;19.00;12.00
65383;PMS5003;51986;52.788;41.368;2023-02-01T08:25:34;18.00;14.00;7.25
65383;PMS5003;51986;52.788;41.368;2023-02-01T08:28:01;15.25;13.00;6.00
65383;PMS5003;51986;52.788;41.368;2023-02-01T08:30:29;17.00;16.00;8.00
65383;PMS5003;51986;52.788;41.368;2023-02-01T08:32:56;21.00;18.50;11.75
65383;PMS5003;51986;52.788;41.368;2023-02-01T08:35:23;22.00;20.00;12.75
65383;PMS5003;51986;52.788;41.368;2023-02-01T08:38:08;19.00;16.25;11.00
65383;PMS5003;51986;52.788;41.368;2023-02-01T08:40:34;18.00;16.00;11.75
65383;PMS5003;51986;52.788;41.368;2023-02-01T08:43:01;14.25;14.00;7.00
65383;PMS5003;51986;52.788;41.368;2023-02-01T08:45:28;14.00;13.50;6.00
65383;PMS5003;51986;52.788;41.368;2023-02-01T08:47:56;14.00;13.00;5.00
65383;PMS5003;51986;52.788;41.368;2023-02-01T08:50:23;14.00;12.00;4.50
65383;PMS5003;51986;52.788;41.368;2023-02-01T08:52:52;16.00;15.25;8.00
65383;PMS5003;51986;52.788;41.368;2023-02-01T08:55:20;18.25;18.00;10.00
65383;PMS5003;51986;52.788;41.368;2023-02-01T08:57:47;18.00;16.00;8.00
65383;PMS5003;51986;52.788;41.368;2023-02-01T09:00:15;19.00;18.00;10.00
65383;PMS5003;51986;52.788;41.368;2023-02-01T09:02:43;18.00;16.00;10.00
65383;PMS5003;51986;52.788;41.368;2023-02-01T09:05:11;18.00;17.25;10.00
65383;PMS5003;51986;52.788;41.368;2023-02-01T09:07:38;18.00;18.00;10.00
65383;PMS5003;51986;52.788;41.368;2023-02-01T09:10:05;14.00;12.25;6.75
65383;PMS5003;51986;52.788;41.368;2023-02-01T09:12:33;15.50;14.00;9.00
65383;PMS5003;51986;52.788;41.368;2023-02-01T09:15:01;13.75;12.00;4.50
65383;PMS5003;51986;52.788;41.368;2023-02-01T09:17:29;14.00;13.25;6.50
65383;PMS5003;51986;52.788;41.368;2023-02-01T09:19:56;16.00;15.00;9.00
65383;PMS5003;51986;52.788;41.368;2023-02-01T09:22:23;14.75;13.75;6.00
65383;PMS5003;51986;52.788;41.368;2023-02-01T09:24:51;14.00;13.00;5.00
65383;PMS5003;51986;52.788;41.368;2023-02-01T09:27:20;14.00;12.00;6.50
65383;PMS5003;51986;52.788;41.368;2023-02-01T09:29:48;14.75;13.00;8.00
65383;PMS5003;51986;52.788;41.368;2023-02-01T09:32:15;17.25;14.75;9.00
65383;PMS5003;51986;52.788;41.368;2023-02-01T09:34:42;18.25;16.00;10.00
65383;PMS5003;51986;52.788;41.368;2023-02-01T09:37:09;13.00;12.00;6.00
65383;PMS5003;51986;52.788;41.368;2023-02-01T09:39:36;12.50;11.50;4.00
65383;PMS5003;51986;52.788;41.368;2023-02-01T09:42:30;14.00;12.00;5.00
65383;PMS5003;51986;52.788;41.368;2023-02-01T09:45:22;12.00;10.00;4.00
65383;PMS5003;51986;52.788;41.368;2023-02-01T09:47:52;12.00;10.00;4.00
65383;PMS5003;51986;52.788;41.368;2023-02-01T09:50:56;10.00;8.00;3.00
65383;PMS5003;51986;52.788;41.368;2023-02-01T09:53:33;10.50;7.00;3.00
65383;PMS5003;51986;52.788;41.368;2023-02-01T09:56:05;12.00;8.00;3.50
65383;PMS5003;51986;52.788;41.368;2023-02-01T09:58:35;14.00;12.00;7.50
65383;PMS5003;51986;52.788;41.368;2023-02-01T10:01:09;15.50;14.00;9.00
65383;PMS5003;51986;52.788;41.368;2023-02-01T10:03:44;14.00;12.00;6.00
65383;PMS5003;51986;52.788;41.368;2023-02-01T10:08:55;12.00;11.00;4.75
65383;PMS5003;51986;52.788;41.368;2023-02-01T10:12:04;13.00;11.00;4.00
65383;PMS5003;51986;52.788;41.368;2023-02-01T10:23:54;18.00;16.50;9.75
65383;PMS5003;51986;52.788;41.368;2023-02-01T10:26:50;17.75;16.00;12.00
65383;PMS5003;51986;52.788;41.368;2023-02-01T10:29:27;12.25;11.00;6.25
65383;PMS5003;51986;52.788;41.368;2023-02-01T10:32:01;11.75;10.00;4.00
65383;PMS5003;51986;52.788;41.368;2023-02-01T10:34:32;11.00;9.00;3.00
65383;PMS5003;51986;52.788;41.368;2023-02-01T10:37:09;16.00;13.50;8.75
65383;PMS5003;51986;52.788;41.368;2023-02-01T10:40:02;15.50;14.00;10.00
65383;PMS5003;51986;52.788;41.368;2023-02-01T10:42:42;20.00;16.00;12.00
65383;PMS5003;51986;52.788;41.368;2023-02-01T10:45:12;17.00;14.00;11.00
65383;PMS5003;51986;52.788;41.368;2023-02-01T10:47:42;16.00;13.00;7.50
65383;PMS5003;51986;52.788;41.368;2023-02-01T10:52:50;15.25;13.50;6.00
65383;PMS5003;51986;52.788;41.368;2023-02-01T10:58:10;16.00;15.00;8.00
65383;PMS5003;51986;52.788;41.368;2023-02-01T11:00:43;16.00;13.00;6.00
65383;PMS5003;51986;52.788;41.368;2023-02-01T11:06:04;14.00;13.50;6.00
65383;PMS5003;51986;52.788;41.368;2023-02-01T11:08:53;17.00;14.00;8.00
65383;PMS5003;51986;52.788;41.368;2023-02-01T11:11:22;15.00;13.00;8.00
65383;PMS5003;51986;52.788;41.368;2023-02-01T11:13:57;14.00;11.00;6.00
65383;PMS5003;51986;52.788;41.368;2023-02-01T11:16:35;12.50;11.50;7.00
65383;PMS5003;51986;52.788;41.368;2023-02-01T11:19:05;13.00;12.00;6.00
65383;PMS5003;51986;52.788;41.368;2023-02-01T11:21:33;14.00;12.00;6.00
65383;PMS5003;51986;52.788;41.368;2023-02-01T11:24:04;13.00;10.00;4.00
65383;PMS5003;51986;52.788;41.368;2023-02-01T11:26:32;12.50;9.50;4.00
65383;PMS5003;51986;52.788;41.368;2023-02-01T11:29:01;12.00;10.00;4.00
65383;PMS5003;51986;52.788;41.368;2023-02-01T11:31:32;14.50;12.75;8.00
65383;PMS5003;51986;52.788;41.368;2023-02-01T11:34:20;12.00;12.00;5.25
65383;PMS5003;51986;52.788;41.368;2023-02-01T11:36:51;13.75;12.00;6.25
65383;PMS5003;51986;52.788;41.368;2023-02-01T11:39:25;18.00;16.00;10.00
65383;PMS5003;51986;52.788;41.368;2023-02-01T11:42:15;16.00;14.50;10.00
65383;PMS5003;51986;52.788;41.368;2023-02-01T11:44:44;15.00;15.00;11.00
65383;PMS5003;51986;52.788;41.368;2023-02-01T11:47:23;14.00;12.00;7.00
65383;PMS5003;51986;52.788;41.368;2023-02-01T11:49:55;16.00;14.00;8.50
65383;PMS5003;51986;52.788;41.368;2023-02-01T12:05:53;15.50;12.00;5.00
65383;PMS5003;51986;52.788;41.368;2023-02-01T12:20:10;18.00;16.00;9.50
65383;PMS5003;51986;52.788;41.368;2023-02-01T12:23:21;15.50;13.50;6.00
65383;PMS5003;51986;52.788;41.368;2023-02-01T12:26:22;15.50;13.50;6.75
65383;PMS5003;51986;52.788;41.368;2023-02-01T12:31:41;17.25;13.75;6.00
65383;PMS5003;51986;52.788;41.368;2023-02-01T12:43:22;18.00;15.50;8.50
65383;PMS5003;51986;52.788;41.368;2023-02-01T12:46:04;15.75;15.25;6.50
65383;PMS5003;51986;52.788;41.368;2023-02-01T12:48:37;15.75;12.00;4.00
65383;PMS5003;51986;52.788;41.368;2023-02-01T12:51:16;18.75;14.75;8.00
65383;PMS5003;51986;52.788;41.368;2023-02-01T12:53:55;20.50;17.00;10.50
65383;PMS5003;51986;52.788;41.368;2023-02-01T12:56:43;15.50;13.00;6.00
65383;PMS5003;51986;52.788;41.368;2023-02-01T13:02:00;15.00;13.00;5.00
65383;PMS5003;51986;52.788;41.368;2023-02-01T13:04:40;15.75;13.00;5.00
65383;PMS5003;51986;52.788;41.368;2023-02-01T13:07:14;16.00;14.00;8.00
65383;PMS5003;51986;52.788;41.368;2023-02-01T13:09:51;18.50;15.50;8.50
65383;PMS5003;51986;52.788;41.368;2023-02-01T13:12:44;17.00;14.00;6.50
65383;PMS5003;51986;52.788;41.368;2023-02-01T13:15:39;14.50;12.00;4.00
65383;PMS5003;51986;52.788;41.368;2023-02-01T13:18:13;18.00;15.75;7.25
65383;PMS5003;51986;52.788;41.368;2023-02-01T13:23:36;15.00;12.00;5.00
65383;PMS5003;51986;52.788;41.368;2023-02-01T13:26:06;18.50;17.00;9.25
65383;PMS5003;51986;52.788;41.368;2023-02-01T13:29:07;19.00;16.00;9.75
65383;PMS5003;51986;52.788;41.368;2023-02-01T13:31:49;15.00;13.25;7.00
65383;PMS5003;51986;52.788;41.368;2023-02-01T13:42:52;16.00;14.00;5.00
65383;PMS5003;51986;52.788;41.368;2023-02-01T13:45:25;13.50;13.00;4.00
65383;PMS5003;51986;52.788;41.368;2023-02-01T13:47:56;17.50;15.75;8.50
65383;PMS5003;51986;52.788;41.368;2023-02-01T13:50:29;16.25;11.50;5.00
65383;PMS5003;51986;52.788;41.368;2023-02-01T13:57:59;14.25;12.50;5.25
65383;PMS5003;51986;52.788;41.368;2023-02-01T14:26:26;15.25;13.50;5.00
65383;PMS5003;51986;52.788;41.368;2023-02-01T14:32:18;17.00;13.25;5.25
65383;PMS5003;51986;52.788;41.368;2023-02-01T14:47:48;17.00;14.50;7.00
65383;PMS5003;51986;52.788;41.368;2023-02-01T14:50:34;17.00;15.00;6.00
65383;PMS5003;51986;52.788;41.368;2023-02-01T14:56:04;15.00;14.00;7.00
65383;PMS5003;51986;52.788;41.368;2023-02-01T15:01:34;13.00;11.00;4.00
65383;PMS5003;51986;52.788;41.368;2023-02-01T15:04:09;15.50;13.00;6.00
65383;PMS5003;51986;52.788;41.368;2023-02-01T15:06:57;16.75;14.50;6.00
65383;PMS5003;51986;52.788;41.368;2023-02-01T15:09:34;15.00;12.00;6.75
65383;PMS5003;51986;52.788;41.368;2023-02-01T15:14:40;16.25;13.00;5.00
65383;PMS5003;51986;52.788;41.368;2023-02-01T15:17:23;14.00;11.00;5.00
65383;PMS5003;51986;52.788;41.368;2023-02-01T15:19:53;17.75;13.00;5.00
65383;PMS5003;51986;52.788;41.368;2023-02-01T15:22:21;15.00;11.00;5.00
65383;PMS5003;51986;52.788;41.368;2023-02-01T15:24:55;15.50;13.00;5.00
65383;PMS5003;51986;52.788;41.368;2023-02-01T15:27:27;15.00;13.25;5.00
65383;PMS5003;51986;52.788;41.368;2023-02-01T15:30:04;13.00;11.00;3.00
65383;PMS5003;51986;52.788;41.368;2023-02-01T15:32:34;12.25;11.00;4.00
65383;PMS5003;51986;52.788;41.368;2023-02-01T15:35:04;13.00;11.00;4.00
65383;PMS5003;51986;52.788;41.368;2023-02-01T15:37:31;11.00;9.50;2.25
65383;PMS5003;51986;52.788;41.368;2023-02-01T15:40:14;11.00;9.00;3.00
65383;PMS5003;51986;52.788;41.368;2023-02-01T15:42:51;13.00;10.25;4.00
65383;PMS5003;51986;52.788;41.368;2023-02-01T15:45:19;10.00;9.00;3.00
65383;PMS5003;51986;52.788;41.368;2023-02-01T15:47:48;15.00;13.25;7.75
65383;PMS5003;51986;52.788;41.368;2023-02-01T15:50:18;13.00;11.50;4.25
65383;PMS5003;51986;52.788;41.368;2023-02-01T15:52:50;11.00;9.00;3.00
65383;PMS5003;51986;52.788;41.368;2023-02-01T15:55:23;16.25;14.00;7.75
65383;PMS5003;51986;52.788;41.368;2023-02-01T15:58:05;15.00;13.00;5.00
65383;PMS5003;51986;52.788;41.368;2023-02-01T16:00:45;12.25;10.75;3.00
65383;PMS5003;51986;52.788;41.368;2023-02-01T16:11:30;14.50;12.00;5.00
65383;PMS5003;51986;52.788;41.368;2023-02-01T16:13:59;13.75;12.00;4.00
65383;PMS5003;51986;52.788;41.368;2023-02-01T16:16:28;13.00;12.00;5.00
65383;PMS5003;51986;52.788;41.368;2023-02-01T16:18:56;15.00;12.50;5.00
65383;PMS5003;51986;52.788;41.368;2023-02-01T16:21:23;18.00;15.50;9.50
65383;PMS5003;51986;52.788;41.368;2023-02-01T16:23:50;14.25;14.00;8.75
65383;PMS5003;51986;52.788;41.368;2023-02-01T16:26:18;15.00;13.00;5.00
65383;PMS5003;51986;52.788;41.368;2023-02-01T16:28:47;15.00;13.00;6.00
65383;PMS5003;51986;52.788;41.368;2023-02-01T16:31:17;16.25;14.25;8.25
65383;PMS5003;51986;52.788;41.368;2023-02-01T16:33:50;17.75;15.00;7.00
65383;PMS5003;51986;52.788;41.368;2023-02-01T16:36:18;16.75;14.75;5.75
65383;PMS5003;51986;52.788;41.368;2023-02-01T16:38:46;16.00;13.00;5.00
65383;PMS5003;51986;52.788;41.368;2023-02-01T16:41:14;13.00;12.00;5.00
65383;PMS5003;51986;52.788;41.368;2023-02-01T16:43:42;13.00;11.25;3.00
65383;PMS5003;51986;52.788;41.368;2023-02-01T16:46:12;16.00;14.00;9.00
65383;PMS5003;51986;52.788;41.368;2023-02-01T16:48:42;12.50;12.00;4.75
65383;PMS5003;51986;52.788;41.368;2023-02-01T16:51:13;11.00;10.00;3.00
65383;PMS5003;51986;52.788;41.368;2023-02-01T16:53:43;13.25;11.25;4.25
65383;PMS5003;51986;52.788;41.368;2023-02-01T16:56:24;14.00;12.00;5.00
65383;PMS5003;51986;52.788;41.368;2023-02-01T16:58:57;15.75;14.00;6.00
65383;PMS5003;51986;52.788;41.368;2023-02-01T17:01:25;18.00;16.00;8.50
65383;PMS5003;51986;52.788;41.368;2023-02-01T17:03:52;16.75;15.00;5.25
65383;PMS5003;51986;52.788;41.368;2023-02-01T17:06:21;18.00;15.50;8.25
65383;PMS5003;51986;52.788;41.368;2023-02-01T17:08:51;13.50;11.00;5.00
65383;PMS5003;51986;52.788;41.368;2023-02-01T17:11:20;13.00;10.50;5.25
65383;PMS5003;51986;52.788;41.368;2023-02-01T17:13:48;11.00;10.00;3.50
65383;PMS5003;51986;52.788;41.368;2023-02-01T17:16:19;12.00;11.00;3.00
65383;PMS5003;51986;52.788;41.368;2023-02-01T17:19:04;10.00;9.00;3.00
65383;PMS5003;51986;52.788;41.368;2023-02-01T17:21:38;13.50;11.50;5.00
65383;PMS5003;51986;52.788;41.368;2023-02-01T17:24:15;16.50;15.00;7.00
65383;PMS5003;51986;52.788;41.368;2023-02-01T17:26:44;17.50;14.25;5.00
65383;PMS5003;51986;52.788;41.368;2023-02-01T17:29:11;14.00;13.00;3.00
65383;PMS5003;51986;52.788;41.368;2023-02-01T17:31:41;14.00;13.00;5.25
65383;PMS5003;51986;52.788;41.368;2023-02-01T17:34:11;14.75;11.75;3.00
65383;PMS5003;51986;52.788;41.368;2023-02-01T17:36:40;13.00;12.50;4.00
65383;PMS5003;51986;52.788;41.368;2023-02-01T17:39:08;19.00;17.00;7.75
65383;PMS5003;51986;52.788;41.368;2023-02-01T17:41:36;16.50;13.25;5.00
65383;PMS5003;51986;52.788;41.368;2023-02-01T17:44:08;13.75;12.00;3.00
65383;PMS5003;51986;52.788;41.368;2023-02-01T17:46:36;14.00;11.00;4.00
65383;PMS5003;51986;52.788;41.368;2023-02-01T17:49:03;14.00;13.00;4.25
65383;PMS5003;51986;52.788;41.368;2023-02-01T17:51:29;15.00;14.00;8.00
65383;PMS5003;51986;52.788;41.368;2023-02-01T17:53:57;13.50;13.00;5.00
65383;PMS5003;51986;52.788;41.368;2023-02-01T17:56:24;12.00;11.00;4.00
65383;PMS5003;51986;52.788;41.368;2023-02-01T17:58:51;18.00;13.50;6.00
65383;PMS5003;51986;52.788;41.368;2023-02-01T18:01:19;14.75;13.00;5.00
65383;PMS5003;51986;52.788;41.368;2023-02-01T18:03:48;14.50;13.00;5.00
65383;PMS5003;51986;52.788;41.368;2023-02-01T18:06:16;13.00;11.00;3.00
65383;PMS5003;51986;52.788;41.368;2023-02-01T18:08:45;16.00;14.25;5.50
65383;PMS5003;51986;52.788;41.368;2023-02-01T18:11:13;17.00;15.00;7.00
65383;PMS5003;51986;52.788;41.368;2023-02-01T18:13:45;15.00;13.00;6.00
65383;PMS5003;51986;52.788;41.368;2023-02-01T18:18:51;14.00;13.00;5.00
65383;PMS5003;51986;52.788;41.368;2023-02-01T18:21:19;19.50;18.00;10.00
65383;PMS5003;51986;52.788;41.368;2023-02-01T18:23:50;19.00;15.00;8.50
65383;PMS5003;51986;52.788;41.368;2023-02-01T18:26:18;16.75;13.00;5.25
65383;PMS5003;51986;52.788;41.368;2023-02-01T18:28:45;18.25;13.50;7.00
65383;PMS5003;51986;52.788;41.368;2023-02-01T18:31:18;25.50;21.00;12.75
65383;PMS5003;51986;52.788;41.368;2023-02-01T18:33:49;22.00;18.00;11.00
65383;PMS5003;51986;52.788;41.368;2023-02-01T18:36:17;20.50;16.00;10.00
65383;PMS5003;51986;52.788;41.368;2023-02-01T18:38:46;18.00;15.00;8.25
65383;PMS5003;51986;52.788;41.368;2023-02-01T18:41:17;21.25;16.50;8.00
65383;PMS5003;51986;52.788;41.368;2023-02-01T18:43:46;17.50;14.00;5.50
65383;PMS5003;51986;52.788;41.368;2023-02-01T18:46:14;18.50;16.50;8.75
65383;PMS5003;51986;52.788;41.368;2023-02-01T18:48:41;14.00;13.00;9.00
65383;PMS5003;51986;52.788;41.368;2023-02-01T18:51:13;18.50;15.00;6.00
65383;PMS5003;51986;52.788;41.368;2023-02-01T18:53:43;18.00;16.00;8.00
65383;PMS5003;51986;52.788;41.368;2023-02-01T18:56:10;18.75;17.00;7.25
65383;PMS5003;51986;52.788;41.368;2023-02-01T18:58:39;37.50;29.50;16.25
65383;PMS5003;51986;52.788;41.368;2023-02-01T19:01:07;35.00;27.75;15.50
65383;PMS5003;51986;52.788;41.368;2023-02-01T19:03:40;24.25;19.25;12.00
65383;PMS5003;51986;52.788;41.368;2023-02-01T19:06:11;21.00;16.50;8.00
65383;PMS5003;51986;52.788;41.368;2023-02-01T19:08:38;20.00;17.00;7.00
65383;PMS5003;51986;52.788;41.368;2023-02-01T19:11:06;19.00;16.00;6.00
65383;PMS5003;51986;52.788;41.368;2023-02-01T19:13:34;15.75;14.25;5.50
65383;PMS5003;51986;52.788;41.368;2023-02-01T19:16:10;18.50;16.00;8.75
65383;PMS5003;51986;52.788;41.368;2023-02-01T19:18:38;20.75;18.00;10.00
65383;PMS5003;51986;52.788;41.368;2023-02-01T19:21:06;18.00;16.00;8.00
65383;PMS5003;51986;52.788;41.368;2023-02-01T19:23:38;23.75;20.00;10.00
65383;PMS5003;51986;52.788;41.368;2023-02-01T19:26:10;23.75;20.75;10.50
65383;PMS5003;51986;52.788;41.368;2023-02-01T19:28:38;23.00;20.00;10.00
65383;PMS5003;51986;52.788;41.368;2023-02-01T19:31:06;22.25;18.75;10.00
65383;PMS5003;51986;52.788;41.368;2023-02-01T19:33:34;20.00;15.00;7.00
65383;PMS5003;51986;52.788;41.368;2023-02-01T19:36:03;20.50;16.00;7.00
65383;PMS5003;51986;52.788;41.368;2023-02-01T19:38:32;22.50;17.75;8.00
65383;PMS5003;51986;52.788;41.368;2023-02-01T19:40:59;22.75;19.00;8.00
65383;PMS5003;51986;52.788;41.368;2023-02-01T19:43:27;20.25;15.00;7.00
65383;PMS5003;51986;52.788;41.368;2023-02-01T19:45:54;18.25;14.00;6.25
65383;PMS5003;51986;52.788;41.368;2023-02-01T19:48:21;21.00;15.75;8.00
65383;PMS5003;51986;52.788;41.368;2023-02-01T19:50:48;17.00;15.00;6.00
65383;PMS5003;51986;52.788;41.368;2023-02-01T19:53:15;19.75;17.25;9.50
65383;PMS5003;51986;52.788;41.368;2023-02-01T19:55:43;17.00;13.00;6.00
65383;PMS5003;51986;52.788;41.368;2023-02-01T19:58:11;15.75;12.00;5.00
65383;PMS5003;51986;52.788;41.368;2023-02-01T20:00:38;15.00;12.50;4.75
65383;PMS5003;51986;52.788;41.368;2023-02-01T20:03:05;19.00;16.50;8.00
65383;PMS5003;51986;52.788;41.368;2023-02-01T20:05:32;17.00;16.00;5.00
65383;PMS5003;51986;52.788;41.368;2023-02-01T20:07:59;15.50;14.50;6.25
65383;PMS5003;51986;52.788;41.368;2023-02-01T20:10:26;20.00;17.00;9.00
65383;PMS5003;51986;52.788;41.368;2023-02-01T20:12:53;18.00;14.00;5.00
65383;PMS5003;51986;52.788;41.368;2023-02-01T20:15:20;17.00;15.00;6.75
65383;PMS5003;51986;52.788;41.368;2023-02-01T20:17:47;18.00;15.00;8.00
65383;PMS5003;51986;52.788;41.368;2023-02-01T20:20:15;17.00;14.00;5.00
65383;PMS5003;51986;52.788;41.368;2023-02-01T20:22:42;16.00;13.75;4.00
65383;PMS5003;51986;52.788;41.368;2023-02-01T20:25:08;16.00;13.00;4.25
65383;PMS5003;51986;52.788;41.368;2023-02-01T20:27:35;18.25;16.00;7.00
65383;PMS5003;51986;52.788;41.368;2023-02-01T20:30:02;18.00;15.00;6.00
65383;PMS5003;51986;52.788;41.368;2023-02-01T20:32:30;15.25;13.00;4.00
65383;PMS5003;51986;52.788;41.368;2023-02-01T20:34:57;19.50;17.00;9.50
65383;PMS5003;51986;52.788;41.368;2023-02-01T20:37:24;18.50;16.00;10.00
65383;PMS5003;51986;52.788;41.368;2023-02-01T20:39:51;19.00;16.00;9.50
65383;PMS5003;51986;52.788;41.368;2023-02-01T20:42:18;16.50;14.00;7.00
65383;PMS5003;51986;52.788;41.368;2023-02-01T20:44:44;22.25;17.00;9.00
65383;PMS5003;51986;52.788;41.368;2023-02-01T20:47:11;23.50;18.25;10.25
65383;PMS5003;51986;52.788;41.368;2023-02-01T20:49:38;22.00;19.00;11.00
65383;PMS5003;51986;52.788;41.368;2023-02-01T20:52:05;22.75;20.00;13.00
65383;PMS5003;51986;52.788;41.368;2023-02-01T20:54:32;21.00;18.00;12.00
65383;PMS5003;51986;52.788;41.368;2023-02-01T20:56:59;17.50;16.00;9.00
65383;PMS5003;51986;52.788;41.368;2023-02-01T20:59:26;22.75;18.00;11.00
65383;PMS5003;51986;52.788;41.368;2023-02-01T21:01:53;20.50;17.50;8.25
65383;PMS5003;51986;52.788;41.368;2023-02-01T21:04:21;18.50;17.00;9.00
65383;PMS5003;51986;52.788;41.368;2023-02-01T21:06:50;19.75;17.00;7.00
65383;PMS5003;51986;52.788;41.368;2023-02-01T21:09:16;28.25;21.50;12.75
65383;PMS5003;51986;52.788;41.368;2023-02-01T21:11:43;25.00;20.00;12.75
65383;PMS5003;51986;52.788;41.368;2023-02-01T21:14:11;22.75;20.00;11.75
65383;PMS5003;51986;52.788;41.368;2023-02-01T21:16:38;22.75;19.25;13.00
65383;PMS5003;51986;52.788;41.368;2023-02-01T21:19:05;19.00;15.75;10.00
65383;PMS5003;51986;52.788;41.368;2023-02-01T21:21:32;17.00;15.00;8.25
65383;PMS5003;51986;52.788;41.368;2023-02-01T21:23:59;20.00;16.00;8.75
65383;PMS5003;51986;52.788;41.368;2023-02-01T21:26:26;21.50;18.25;11.25
65383;PMS5003;51986;52.788;41.368;2023-02-01T21:28:54;24.00;20.00;12.00
65383;PMS5003;51986;52.788;41.368;2023-02-01T21:31:22;27.75;21.00;12.00
65383;PMS5003;51986;52.788;41.368;2023-02-01T21:33:49;27.00;20.00;12.50
65383;PMS5003;51986;52.788;41.368;2023-02-01T21:36:17;24.00;19.00;10.00
65383;PMS5003;51986;52.788;41.368;2023-02-01T21:38:48;22.00;18.00;9.00
65383;PMS5003;51986;52.788;41.368;2023-02-01T21:41:16;20.00;16.00;7.00
65383;PMS5003;51986;52.788;41.368;2023-02-01T21:43:44;23.50;20.00;9.50
65383;PMS5003;51986;52.788;41.368;2023-02-01T21:46:11;25.50;21.00;13.25
65383;PMS5003;51986;52.788;41.368;2023-02-01T21:48:38;22.00;19.25;11.50
65383;PMS5003;51986;52.788;41.368;2023-02-01T21:51:25;24.25;20.00;13.00
65383;PMS5003;51986;52.788;41.368;2023-02-01T21:53:53;23.00;18.75;11.00
65383;PMS5003;51986;52.788;41.368;2023-02-01T21:56:20;22.00;18.00;11.00
65383;PMS5003;51986;52.788;41.368;2023-02-01T21:58:47;23.75;21.00;13.00
65383;PMS5003;51986;52.788;41.368;2023-02-01T22:01:14;24.25;20.00;13.00